sensor_id;sensor_type;location;lat;lon;timestamp;P1;durP1;ratioP1;P2;durP2;ratioP2
46607;SDS011;32330;51.936;7.184;2023-04-24T03:50:15;12.63;;;10.02;;
46607;SDS011;32330;51.936;7.184;2023-04-24T03:52:43;12.90;;;11.52;;
46607;SDS011;32330;51.936;7.184;2023-04-24T03:55:16;14.63;;;9.68;;
46607;SDS011;32330;51.936;7.184;2023-04-24T03:57:46;13.43;;;10.93;;
46607;SDS011;32330;51.936;7.184;2023-04-24T04:00:20;12.15;;;10.88;;
46607;SDS011;32330;51.936;7.184;2023-04-24T04:02:55;13.90;;;11.63;;
46607;SDS011;32330;51.936;7.184;2023-04-24T04:05:23;14.45;;;11.60;;
46607;SDS011;32330;51.936;7.184;2023-04-24T04:07:50;13.32;;;11.10;;
46607;SDS011;32330;51.936;7.184;2023-04-24T04:10:17;13.25;;;11.52;;
46607;SDS011;32330;51.936;7.184;2023-04-24T04:12:44;16.40;;;11.80;;
46607;SDS011;32330;51.936;7.184;2023-04-24T04:15:11;14.82;;;11.55;;
46607;SDS011;32330;51.936;7.184;2023-04-24T04:17:38;13.50;;;11.88;;
46607;SDS011;32330;51.936;7.184;2023-04-24T04:20:06;14.30;;;12.43;;
46607;SDS011;32330;51.936;7.184;2023-04-24T04:22:37;15.05;;;11.95;;
46607;SDS011;32330;51.936;7.184;2023-04-24T04:25:07;13.98;;;12.43;;
46607;SDS011;32330;51.936;7.184;2023-04-24T04:27:35;18.20;;;12.00;;
46607;SDS011;32330;51.936;7.184;2023-04-24T04:30:07;15.57;;;12.07;;
46607;SDS011;32330;51.936;7.184;2023-04-24T04:32:46;17.27;;;12.35;;
46607;SDS011;32330;51.936;7.184;2023-04-24T04:35:13;17.08;;;11.77;;
46607;SDS011;32330;51.936;7.184;2023-04-24T04:37:41;16.88;;;13.27;;
46607;SDS011;32330;51.936;7.184;2023-04-24T04:40:17;16.27;;;13.30;;
46607;SDS011;32330;51.936;7.184;2023-04-24T04:42:53;16.77;;;14.05;;
46607;SDS011;32330;51.936;7.184;2023-04-24T04:45:21;13.73;;;12.27;;
46607;SDS011;32330;51.936;7.184;2023-04-24T04:48:18;17.02;;;13.15;;
46607;SDS011;32330;51.936;7.184;2023-04-24T04:50:45;16.00;;;13.20;;
46607;SDS011;32330;51.936;7.184;2023-04-24T04:53:14;17.48;;;13.68;;
46607;SDS011;32330;51.936;7.184;2023-04-24T04:55:41;19.60;;;13.77;;
46607;SDS011;32330;51.936;7.184;2023-04-24T04:58:19;15.25;;;13.60;;
46607;SDS011;32330;51.936;7.184;2023-04-24T05:00:50;20.10;;;14.05;;
46607;SDS011;32330;51.936;7.184;2023-04-24T05:03:25;15.27;;;13.68;;
46607;SDS011;32330;51.936;7.184;2023-04-24T05:06:03;19.25;;;15.32;;
46607;SDS011;32330;51.936;7.184;2023-04-24T05:08:35;18.33;;;13.98;;
46607;SDS011;32330;51.936;7.184;2023-04-24T05:11:03;18.13;;;13.93;;
46607;SDS011;32330;51.936;7.184;2023-04-24T05:13:31;19.05;;;13.75;;
46607;SDS011;32330;51.936;7.184;2023-04-24T05:15:59;18.42;;;14.02;;
46607;SDS011;32330;51.936;7.184;2023-04-24T05:18:28;18.77;;;14.13;;
46607;SDS011;32330;51.936;7.184;2023-04-24T05:20:55;18.45;;;13.52;;
46607;SDS011;32330;51.936;7.184;2023-04-24T05:23:23;18.80;;;13.95;;
46607;SDS011;32330;51.936;7.184;2023-04-24T05:25:53;15.80;;;13.07;;
46607;SDS011;32330;51.936;7.184;2023-04-24T05:28:21;19.50;;;13.77;;
46607;SDS011;32330;51.936;7.184;2023-04-24T05:31:00;15.85;;;12.20;;
46607;SDS011;32330;51.936;7.184;2023-04-24T05:33:28;13.93;;;12.30;;
46607;SDS011;32330;51.936;7.184;2023-04-24T05:35:55;16.48;;;12.98;;
46607;SDS011;32330;51.936;7.184;2023-04-24T05:38:22;15.07;;;12.40;;
46607;SDS011;32330;51.936;7.184;2023-04-24T05:40:49;14.43;;;11.60;;
46607;SDS011;32330;51.936;7.184;2023-04-24T05:43:18;14.55;;;12.00;;
46607;SDS011;32330;51.936;7.184;2023-04-24T05:45:45;14.05;;;11.73;;
46607;SDS011;32330;51.936;7.184;2023-04-24T05:48:12;17.67;;;12.48;;
46607;SDS011;32330;51.936;7.184;2023-04-24T05:50:39;13.43;;;12.02;;
46607;SDS011;32330;51.936;7.184;2023-04-24T05:53:06;20.13;;;12.55;;
46607;SDS011;32330;51.936;7.184;2023-04-24T05:55:34;16.15;;;11.88;;
46607;SDS011;32330;51.936;7.184;2023-04-24T05:58:02;15.68;;;12.60;;
46607;SDS011;32330;51.936;7.184;2023-04-24T06:00:30;14.98;;;11.02;;
46607;SDS011;32330;51.936;7.184;2023-04-24T06:03:03;14.15;;;12.18;;
46607;SDS011;32330;51.936;7.184;2023-04-24T06:05:31;16.67;;;12.32;;
46607;SDS011;32330;51.936;7.184;2023-04-24T06:07:58;13.57;;;11.05;;
46607;SDS011;32330;51.936;7.184;2023-04-24T06:12:57;11.35;;;9.90;;
46607;SDS011;32330;51.936;7.184;2023-04-24T06:15:26;13.75;;;11.00;;
46607;SDS011;32330;51.936;7.184;2023-04-24T06:18:00;20.45;;;10.80;;
46607;SDS011;32330;51.936;7.184;2023-04-24T06:20:27;11.98;;;9.65;;
46607;SDS011;32330;51.936;7.184;2023-04-24T06:22:54;12.43;;;10.45;;
46607;SDS011;32330;51.936;7.184;2023-04-24T06:25:21;12.10;;;9.70;;
46607;SDS011;32330;51.936;7.184;2023-04-24T06:27:49;10.27;;;8.88;;
46607;SDS011;32330;51.936;7.184;2023-04-24T06:30:16;9.50;;;8.50;;
46607;SDS011;32330;51.936;7.184;2023-04-24T06:32:43;9.05;;;7.28;;
46607;SDS011;32330;51.936;7.184;2023-04-24T06:35:12;9.45;;;8.18;;
46607;SDS011;32330;51.936;7.184;2023-04-24T06:37:39;11.38;;;9.48;;
46607;SDS011;32330;51.936;7.184;2023-04-24T06:40:11;9.95;;;8.93;;
46607;SDS011;32330;51.936;7.184;2023-04-24T06:42:49;9.00;;;7.60;;
46607;SDS011;32330;51.936;7.184;2023-04-24T06:45:16;10.40;;;9.25;;
46607;SDS011;32330;51.936;7.184;2023-04-24T06:47:43;10.45;;;7.90;;
46607;SDS011;32330;51.936;7.184;2023-04-24T06:50:12;10.40;;;8.48;;
46607;SDS011;32330;51.936;7.184;2023-04-24T06:52:41;9.70;;;8.02;;
46607;SDS011;32330;51.936;7.184;2023-04-24T06:55:09;8.85;;;7.93;;
46607;SDS011;32330;51.936;7.184;2023-04-24T06:57:36;7.88;;;7.07;;
46607;SDS011;32330;51.936;7.184;2023-04-24T07:00:11;11.18;;;8.30;;
46607;SDS011;32330;51.936;7.184;2023-04-24T07:02:40;10.05;;;8.07;;
46607;SDS011;32330;51.936;7.184;2023-04-24T07:05:08;8.75;;;6.88;;
46607;SDS011;32330;51.936;7.184;2023-04-24T07:07:36;8.93;;;7.63;;
46607;SDS011;32330;51.936;7.184;2023-04-24T07:10:08;8.98;;;7.25;;
46607;SDS011;32330;51.936;7.184;2023-04-24T07:12:35;8.27;;;7.40;;
46607;SDS011;32330;51.936;7.184;2023-04-24T07:15:02;9.43;;;8.40;;
46607;SDS011;32330;51.936;7.184;2023-04-24T07:17:30;7.47;;;6.78;;
46607;SDS011;32330;51.936;7.184;2023-04-24T07:19:57;7.85;;;6.68;;
46607;SDS011;32330;51.936;7.184;2023-04-24T07:22:26;7.13;;;6.43;;
46607;SDS011;32330;51.936;7.184;2023-04-24T07:24:54;8.00;;;7.00;;
46607;SDS011;32330;51.936;7.184;2023-04-24T07:27:24;7.72;;;6.45;;
46607;SDS011;32330;51.936;7.184;2023-04-24T07:29:51;7.47;;;6.68;;
46607;SDS011;32330;51.936;7.184;2023-04-24T07:32:20;7.05;;;6.35;;
46607;SDS011;32330;51.936;7.184;2023-04-24T07:34:47;9.70;;;6.88;;
46607;SDS011;32330;51.936;7.184;2023-04-24T07:37:14;6.97;;;5.95;;
46607;SDS011;32330;51.936;7.184;2023-04-24T07:39:41;6.85;;;6.05;;
46607;SDS011;32330;51.936;7.184;2023-04-24T07:42:10;6.55;;;5.95;;
46607;SDS011;32330;51.936;7.184;2023-04-24T07:44:37;7.25;;;6.32;;
46607;SDS011;32330;51.936;7.184;2023-04-24T07:47:04;7.85;;;5.75;;
46607;SDS011;32330;51.936;7.184;2023-04-24T07:49:30;7.00;;;6.30;;
46607;SDS011;32330;51.936;7.184;2023-04-24T07:52:00;7.22;;;5.95;;
46607;SDS011;32330;51.936;7.184;2023-04-24T07:54:27;6.57;;;5.93;;
46607;SDS011;32330;51.936;7.184;2023-04-24T07:56:57;6.88;;;6.03;;
46607;SDS011;32330;51.936;7.184;2023-04-24T07:59:27;6.70;;;5.95;;
46607;SDS011;32330;51.936;7.184;2023-04-24T08:01:54;6.60;;;5.93;;
46607;SDS011;32330;51.936;7.184;2023-04-24T08:04:21;5.38;;;4.70;;
46607;SDS011;32330;51.936;7.184;2023-04-24T08:06:48;5.47;;;4.95;;
46607;SDS011;32330;51.936;7.184;2023-04-24T08:09:15;5.47;;;4.97;;
46607;SDS011;32330;51.936;7.184;2023-04-24T08:11:43;5.20;;;4.70;;
46607;SDS011;32330;51.936;7.184;2023-04-24T08:14:10;7.20;;;4.20;;
46607;SDS011;32330;51.936;7.184;2023-04-24T08:16:39;7.30;;;4.43;;
46607;SDS011;32330;51.936;7.184;2023-04-24T08:19:07;4.93;;;4.43;;
46607;SDS011;32330;51.936;7.184;2023-04-24T08:21:34;4.55;;;4.10;;
46607;SDS011;32330;51.936;7.184;2023-04-24T08:24:01;5.05;;;3.80;;
46607;SDS011;32330;51.936;7.184;2023-04-24T08:26:30;5.25;;;4.47;;
46607;SDS011;32330;51.936;7.184;2023-04-24T08:28:57;4.47;;;4.07;;
46607;SDS011;32330;51.936;7.184;2023-04-24T08:31:24;5.00;;;3.90;;
46607;SDS011;32330;51.936;7.184;2023-04-24T08:33:53;4.05;;;3.65;;
46607;SDS011;32330;51.936;7.184;2023-04-24T08:36:20;8.90;;;4.60;;
46607;SDS011;32330;51.936;7.184;2023-04-24T08:38:47;4.30;;;3.90;;
46607;SDS011;32330;51.936;7.184;2023-04-24T08:41:14;5.22;;;3.63;;
46607;SDS011;32330;51.936;7.184;2023-04-24T08:43:42;4.40;;;3.40;;
46607;SDS011;32330;51.936;7.184;2023-04-24T08:46:09;4.07;;;3.70;;
46607;SDS011;32330;51.936;7.184;2023-04-24T08:48:38;7.90;;;3.95;;
46607;SDS011;32330;51.936;7.184;2023-04-24T08:51:08;5.18;;;3.88;;
46607;SDS011;32330;51.936;7.184;2023-04-24T08:53:35;5.75;;;4.30;;
46607;SDS011;32330;51.936;7.184;2023-04-24T08:56:03;4.25;;;3.72;;
46607;SDS011;32330;51.936;7.184;2023-04-24T08:58:31;6.13;;;3.45;;
46607;SDS011;32330;51.936;7.184;2023-04-24T09:00:58;8.15;;;3.15;;
46607;SDS011;32330;51.936;7.184;2023-04-24T09:03:26;5.88;;;3.35;;
46607;SDS011;32330;51.936;7.184;2023-04-24T09:05:54;5.15;;;3.17;;
46607;SDS011;32330;51.936;7.184;2023-04-24T09:08:25;7.10;;;4.10;;
46607;SDS011;32330;51.936;7.184;2023-04-24T09:10:54;4.22;;;3.25;;
46607;SDS011;32330;51.936;7.184;2023-04-24T09:13:23;4.45;;;3.25;;
46607;SDS011;32330;51.936;7.184;2023-04-24T09:15:51;3.83;;;2.95;;
46607;SDS011;32330;51.936;7.184;2023-04-24T09:18:19;5.53;;;4.90;;
46607;SDS011;32330;51.936;7.184;2023-04-24T09:20:59;3.47;;;3.00;;
46607;SDS011;32330;51.936;7.184;2023-04-24T09:23:29;3.97;;;3.58;;
46607;SDS011;32330;51.936;7.184;2023-04-24T09:25:58;4.22;;;3.47;;
46607;SDS011;32330;51.936;7.184;2023-04-24T09:28:26;3.75;;;3.17;;
46607;SDS011;32330;51.936;7.184;2023-04-24T09:31:05;6.25;;;4.15;;
46607;SDS011;32330;51.936;7.184;2023-04-24T09:33:34;4.55;;;3.55;;
46607;SDS011;32330;51.936;7.184;2023-04-24T09:36:01;3.28;;;2.90;;
46607;SDS011;32330;51.936;7.184;2023-04-24T09:38:34;4.13;;;3.47;;
46607;SDS011;32330;51.936;7.184;2023-04-24T09:41:03;6.70;;;2.92;;
46607;SDS011;32330;51.936;7.184;2023-04-24T09:43:32;4.72;;;3.42;;
46607;SDS011;32330;51.936;7.184;2023-04-24T09:46:06;4.65;;;3.92;;
46607;SDS011;32330;51.936;7.184;2023-04-24T09:48:35;8.40;;;4.10;;
46607;SDS011;32330;51.936;7.184;2023-04-24T09:51:04;4.90;;;3.70;;
46607;SDS011;32330;51.936;7.184;2023-04-24T09:53:37;7.30;;;5.43;;
46607;SDS011;32330;51.936;7.184;2023-04-24T09:56:09;4.80;;;4.30;;
46607;SDS011;32330;51.936;7.184;2023-04-24T09:58:37;5.03;;;3.17;;
46607;SDS011;32330;51.936;7.184;2023-04-24T10:01:04;3.10;;;2.80;;
46607;SDS011;32330;51.936;7.184;2023-04-24T10:03:32;3.38;;;3.00;;
46607;SDS011;32330;51.936;7.184;2023-04-24T10:09:32;5.45;;;4.13;;
46607;SDS011;32330;51.936;7.184;2023-04-24T10:12:00;5.70;;;5.07;;
46607;SDS011;32330;51.936;7.184;2023-04-24T10:14:28;9.20;;;5.88;;
46607;SDS011;32330;51.936;7.184;2023-04-24T10:16:56;6.13;;;5.50;;
46607;SDS011;32330;51.936;7.184;2023-04-24T10:19:33;5.95;;;5.03;;
46607;SDS011;32330;51.936;7.184;2023-04-24T10:24:01;6.03;;;4.97;;
46607;SDS011;32330;51.936;7.184;2023-04-24T10:26:31;5.63;;;5.03;;
46607;SDS011;32330;51.936;7.184;2023-04-24T10:28:58;7.00;;;5.93;;
46607;SDS011;32330;51.936;7.184;2023-04-24T10:31:26;8.75;;;5.60;;
46607;SDS011;32330;51.936;7.184;2023-04-24T10:33:57;11.60;;;5.45;;
46607;SDS011;32330;51.936;7.184;2023-04-24T10:36:26;6.72;;;5.38;;
46607;SDS011;32330;51.936;7.184;2023-04-24T10:38:58;9.02;;;6.30;;
46607;SDS011;32330;51.936;7.184;2023-04-24T10:41:28;7.78;;;5.65;;
46607;SDS011;32330;51.936;7.184;2023-04-24T10:44:04;9.55;;;5.75;;
46607;SDS011;32330;51.936;7.184;2023-04-24T10:46:32;8.05;;;5.45;;
46607;SDS011;32330;51.936;7.184;2023-04-24T10:48:59;7.05;;;5.90;;
46607;SDS011;32330;51.936;7.184;2023-04-24T10:51:43;7.07;;;5.15;;
46607;SDS011;32330;51.936;7.184;2023-04-24T10:54:21;6.68;;;5.30;;
46607;SDS011;32330;51.936;7.184;2023-04-24T10:56:51;7.10;;;5.28;;
46607;SDS011;32330;51.936;7.184;2023-04-24T11:02:13;7.25;;;5.13;;
46607;SDS011;32330;51.936;7.184;2023-04-24T11:05:20;6.70;;;4.43;;
46607;SDS011;32330;51.936;7.184;2023-04-24T11:08:13;5.95;;;4.40;;
46607;SDS011;32330;51.936;7.184;2023-04-24T11:10:45;7.53;;;4.32;;
46607;SDS011;32330;51.936;7.184;2023-04-24T11:13:15;6.88;;;4.03;;
46607;SDS011;32330;51.936;7.184;2023-04-24T11:19:22;7.45;;;3.50;;
46607;SDS011;32330;51.936;7.184;2023-04-24T11:28:38;9.88;;;4.20;;
46607;SDS011;32330;51.936;7.184;2023-04-24T11:35:08;8.55;;;4.57;;
46607;SDS011;32330;51.936;7.184;2023-04-24T11:42:41;11.00;;;4.32;;
46607;SDS011;32330;51.936;7.184;2023-04-24T11:45:11;10.48;;;3.75;;
46607;SDS011;32330;51.936;7.184;2023-04-24T11:47:40;9.43;;;4.25;;
46607;SDS011;32330;51.936;7.184;2023-04-24T11:50:08;10.07;;;4.47;;
46607;SDS011;32330;51.936;7.184;2023-04-24T11:52:37;10.75;;;4.30;;
46607;SDS011;32330;51.936;7.184;2023-04-24T11:55:06;10.73;;;5.13;;
46607;SDS011;32330;51.936;7.184;2023-04-24T11:57:35;8.25;;;4.90;;
46607;SDS011;32330;51.936;7.184;2023-04-24T12:00:02;8.98;;;4.82;;
46607;SDS011;32330;51.936;7.184;2023-04-24T12:02:48;12.13;;;4.55;;
46607;SDS011;32330;51.936;7.184;2023-04-24T12:05:28;7.35;;;4.45;;
46607;SDS011;32330;51.936;7.184;2023-04-24T12:07:56;9.60;;;4.05;;
46607;SDS011;32330;51.936;7.184;2023-04-24T12:10:24;6.75;;;3.42;;
46607;SDS011;32330;51.936;7.184;2023-04-24T12:14:09;10.85;;;4.40;;
46607;SDS011;32330;51.936;7.184;2023-04-24T12:17:27;7.85;;;4.90;;
46607;SDS011;32330;51.936;7.184;2023-04-24T12:20:00;9.60;;;3.50;;
46607;SDS011;32330;51.936;7.184;2023-04-24T12:22:42;10.23;;;4.07;;
46607;SDS011;32330;51.936;7.184;2023-04-24T12:25:11;7.97;;;4.28;;
46607;SDS011;32330;51.936;7.184;2023-04-24T12:28:11;9.07;;;4.30;;
46607;SDS011;32330;51.936;7.184;2023-04-24T12:30:40;11.25;;;5.03;;
46607;SDS011;32330;51.936;7.184;2023-04-24T12:33:17;12.73;;;5.10;;
46607;SDS011;32330;51.936;7.184;2023-04-24T12:36:11;8.57;;;4.38;;
46607;SDS011;32330;51.936;7.184;2023-04-24T12:38:43;15.23;;;5.13;;
46607;SDS011;32330;51.936;7.184;2023-04-24T12:41:12;7.20;;;4.45;;
46607;SDS011;32330;51.936;7.184;2023-04-24T12:44:01;10.05;;;3.53;;
46607;SDS011;32330;51.936;7.184;2023-04-24T12:46:55;8.55;;;3.92;;
46607;SDS011;32330;51.936;7.184;2023-04-24T12:49:25;9.75;;;3.70;;
46607;SDS011;32330;51.936;7.184;2023-04-24T12:51:55;8.77;;;3.63;;
46607;SDS011;32330;51.936;7.184;2023-04-24T12:54:23;10.18;;;3.80;;
46607;SDS011;32330;51.936;7.184;2023-04-24T12:56:50;6.47;;;3.50;;
46607;SDS011;32330;51.936;7.184;2023-04-24T12:59:23;7.57;;;3.00;;
46607;SDS011;32330;51.936;7.184;2023-04-24T13:01:51;5.78;;;2.95;;
46607;SDS011;32330;51.936;7.184;2023-04-24T13:04:18;9.25;;;2.72;;
46607;SDS011;32330;51.936;7.184;2023-04-24T13:06:50;6.57;;;2.58;;
46607;SDS011;32330;51.936;7.184;2023-04-24T13:09:18;9.75;;;3.10;;
46607;SDS011;32330;51.936;7.184;2023-04-24T13:11:46;5.88;;;2.30;;
46607;SDS011;32330;51.936;7.184;2023-04-24T13:14:22;5.18;;;2.17;;
46607;SDS011;32330;51.936;7.184;2023-04-24T13:16:55;6.10;;;2.00;;
46607;SDS011;32330;51.936;7.184;2023-04-24T13:19:25;7.03;;;1.60;;
46607;SDS011;32330;51.936;7.184;2023-04-24T13:21:54;6.90;;;1.95;;
46607;SDS011;32330;51.936;7.184;2023-04-24T13:24:25;5.70;;;1.53;;
46607;SDS011;32330;51.936;7.184;2023-04-24T13:26:53;6.97;;;2.10;;
46607;SDS011;32330;51.936;7.184;2023-04-24T13:29:22;6.35;;;1.88;;
46607;SDS011;32330;51.936;7.184;2023-04-24T13:31:50;5.35;;;1.50;;
46607;SDS011;32330;51.936;7.184;2023-04-24T13:34:23;6.35;;;1.60;;
46607;SDS011;32330;51.936;7.184;2023-04-24T13:36:52;3.70;;;1.40;;
46607;SDS011;32330;51.936;7.184;2023-04-24T13:39:21;4.43;;;1.60;;
46607;SDS011;32330;51.936;7.184;2023-04-24T13:41:53;3.97;;;1.40;;
46607;SDS011;32330;51.936;7.184;2023-04-24T13:44:24;4.00;;;1.20;;
46607;SDS011;32330;51.936;7.184;2023-04-24T13:46:53;2.97;;;1.42;;
46607;SDS011;32330;51.936;7.184;2023-04-24T13:49:25;2.20;;;1.30;;
46607;SDS011;32330;51.936;7.184;2023-04-24T13:51:54;5.00;;;1.33;;
46607;SDS011;32330;51.936;7.184;2023-04-24T13:54:21;5.05;;;2.45;;
46607;SDS011;32330;51.936;7.184;2023-04-24T13:56:55;2.88;;;1.80;;
46607;SDS011;32330;51.936;7.184;2023-04-24T13:59:26;5.43;;;1.80;;
46607;SDS011;32330;51.936;7.184;2023-04-24T14:01:56;4.55;;;1.52;;
46607;SDS011;32330;51.936;7.184;2023-04-24T14:04:27;4.20;;;1.60;;
46607;SDS011;32330;51.936;7.184;2023-04-24T14:06:58;3.17;;;1.63;;
46607;SDS011;32330;51.936;7.184;2023-04-24T14:09:25;5.20;;;2.50;;
46607;SDS011;32330;51.936;7.184;2023-04-24T14:11:54;4.30;;;2.70;;
46607;SDS011;32330;51.936;7.184;2023-04-24T14:14:22;4.93;;;1.90;;
46607;SDS011;32330;51.936;7.184;2023-04-24T14:16:50;7.28;;;2.95;;
46607;SDS011;32330;51.936;7.184;2023-04-24T14:19:17;5.18;;;1.88;;
46607;SDS011;32330;51.936;7.184;2023-04-24T14:21:44;4.53;;;1.63;;
46607;SDS011;32330;51.936;7.184;2023-04-24T14:24:12;4.55;;;1.42;;
46607;SDS011;32330;51.936;7.184;2023-04-24T14:26:41;4.47;;;1.60;;
46607;SDS011;32330;51.936;7.184;2023-04-24T14:29:09;2.97;;;1.30;;
46607;SDS011;32330;51.936;7.184;2023-04-24T14:31:37;3.13;;;1.50;;
46607;SDS011;32330;51.936;7.184;2023-04-24T14:34:04;5.18;;;1.58;;
46607;SDS011;32330;51.936;7.184;2023-04-24T14:36:32;4.47;;;1.35;;
46607;SDS011;32330;51.936;7.184;2023-04-24T14:39:00;5.55;;;1.27;;
46607;SDS011;32330;51.936;7.184;2023-04-24T14:41:32;3.47;;;1.25;;
46607;SDS011;32330;51.936;7.184;2023-04-24T14:44:01;5.15;;;1.65;;
46607;SDS011;32330;51.936;7.184;2023-04-24T14:46:37;3.05;;;1.38;;
46607;SDS011;32330;51.936;7.184;2023-04-24T14:49:04;3.83;;;1.15;;
46607;SDS011;32330;51.936;7.184;2023-04-24T14:51:37;4.35;;;1.60;;
46607;SDS011;32330;51.936;7.184;2023-04-24T14:54:09;3.25;;;1.55;;
46607;SDS011;32330;51.936;7.184;2023-04-24T14:56:36;4.68;;;2.85;;
46607;SDS011;32330;51.936;7.184;2023-04-24T14:59:08;4.05;;;1.50;;
46607;SDS011;32330;51.936;7.184;2023-04-24T15:04:08;3.53;;;1.55;;
46607;SDS011;32330;51.936;7.184;2023-04-24T15:06:35;5.85;;;1.40;;
46607;SDS011;32330;51.936;7.184;2023-04-24T15:09:09;5.50;;;1.52;;
46607;SDS011;32330;51.936;7.184;2023-04-24T15:11:39;5.47;;;1.90;;
46607;SDS011;32330;51.936;7.184;2023-04-24T15:14:06;5.47;;;1.63;;
46607;SDS011;32330;51.936;7.184;2023-04-24T15:16:34;8.05;;;2.50;;
46607;SDS011;32330;51.936;7.184;2023-04-24T15:19:02;10.05;;;2.35;;
46607;SDS011;32330;51.936;7.184;2023-04-24T15:21:37;3.55;;;1.40;;
46607;SDS011;32330;51.936;7.184;2023-04-24T15:24:12;6.05;;;1.92;;
46607;SDS011;32330;51.936;7.184;2023-04-24T15:26:41;5.15;;;1.55;;
46607;SDS011;32330;51.936;7.184;2023-04-24T15:29:09;8.13;;;1.50;;
46607;SDS011;32330;51.936;7.184;2023-04-24T15:31:39;3.00;;;1.48;;
46607;SDS011;32330;51.936;7.184;2023-04-24T15:34:08;7.30;;;1.90;;
46607;SDS011;32330;51.936;7.184;2023-04-24T15:36:43;5.80;;;1.73;;
46607;SDS011;32330;51.936;7.184;2023-04-24T15:39:13;3.67;;;1.80;;
46607;SDS011;32330;51.936;7.184;2023-04-24T15:41:42;6.10;;;1.92;;
46607;SDS011;32330;51.936;7.184;2023-04-24T15:44:09;4.68;;;2.40;;
46607;SDS011;32330;51.936;7.184;2023-04-24T15:46:36;5.55;;;2.53;;
46607;SDS011;32330;51.936;7.184;2023-04-24T15:49:06;6.13;;;2.50;;
46607;SDS011;32330;51.936;7.184;2023-04-24T15:51:34;5.70;;;2.20;;
46607;SDS011;32330;51.936;7.184;2023-04-24T15:54:01;4.32;;;1.70;;
46607;SDS011;32330;51.936;7.184;2023-04-24T15:56:29;5.95;;;2.50;;
46607;SDS011;32330;51.936;7.184;2023-04-24T15:58:59;7.40;;;2.97;;
46607;SDS011;32330;51.936;7.184;2023-04-24T16:01:27;6.55;;;2.47;;
46607;SDS011;32330;51.936;7.184;2023-04-24T16:03:55;10.13;;;2.60;;
46607;SDS011;32330;51.936;7.184;2023-04-24T16:06:24;8.57;;;2.85;;
46607;SDS011;32330;51.936;7.184;2023-04-24T16:08:52;4.93;;;2.53;;
46607;SDS011;32330;51.936;7.184;2023-04-24T16:11:19;10.77;;;3.00;;
46607;SDS011;32330;51.936;7.184;2023-04-24T16:13:50;8.02;;;2.22;;
46607;SDS011;32330;51.936;7.184;2023-04-24T16:16:20;6.68;;;2.00;;
46607;SDS011;32330;51.936;7.184;2023-04-24T16:18:53;8.32;;;2.67;;
46607;SDS011;32330;51.936;7.184;2023-04-24T16:21:20;9.07;;;4.28;;
46607;SDS011;32330;51.936;7.184;2023-04-24T16:23:49;9.18;;;3.58;;
46607;SDS011;32330;51.936;7.184;2023-04-24T16:26:16;9.45;;;2.92;;
46607;SDS011;32330;51.936;7.184;2023-04-24T16:28:43;9.43;;;2.92;;
46607;SDS011;32330;51.936;7.184;2023-04-24T16:31:10;10.43;;;2.70;;
46607;SDS011;32330;51.936;7.184;2023-04-24T16:33:37;12.15;;;2.40;;
46607;SDS011;32330;51.936;7.184;2023-04-24T16:36:05;9.27;;;2.90;;
46607;SDS011;32330;51.936;7.184;2023-04-24T16:38:33;9.32;;;2.75;;
46607;SDS011;32330;51.936;7.184;2023-04-24T16:41:02;6.78;;;2.45;;
46607;SDS011;32330;51.936;7.184;2023-04-24T16:43:29;6.18;;;2.33;;
46607;SDS011;32330;51.936;7.184;2023-04-24T16:45:57;11.13;;;3.20;;
46607;SDS011;32330;51.936;7.184;2023-04-24T16:48:24;9.32;;;3.13;;
46607;SDS011;32330;51.936;7.184;2023-04-24T16:50:54;7.95;;;2.90;;
46607;SDS011;32330;51.936;7.184;2023-04-24T16:53:21;6.57;;;2.70;;
46607;SDS011;32330;51.936;7.184;2023-04-24T16:55:48;8.45;;;3.90;;
46607;SDS011;32330;51.936;7.184;2023-04-24T16:58:17;6.93;;;3.40;;
46607;SDS011;32330;51.936;7.184;2023-04-24T17:00:44;7.45;;;2.80;;
46607;SDS011;32330;51.936;7.184;2023-04-24T17:03:12;11.00;;;2.58;;
46607;SDS011;32330;51.936;7.184;2023-04-24T17:05:40;14.65;;;4.50;;
46607;SDS011;32330;51.936;7.184;2023-04-24T17:08:07;9.10;;;3.45;;
46607;SDS011;32330;51.936;7.184;2023-04-24T17:10:34;10.10;;;2.97;;
46607;SDS011;32330;51.936;7.184;2023-04-24T17:13:02;8.02;;;2.60;;
46607;SDS011;32330;51.936;7.184;2023-04-24T17:15:30;8.25;;;2.97;;
46607;SDS011;32330;51.936;7.184;2023-04-24T17:17:58;10.27;;;3.00;;
46607;SDS011;32330;51.936;7.184;2023-04-24T17:20:25;7.05;;;2.92;;
46607;SDS011;32330;51.936;7.184;2023-04-24T17:22:52;7.78;;;2.67;;
46607;SDS011;32330;51.936;7.184;2023-04-24T17:25:20;6.47;;;3.35;;
46607;SDS011;32330;51.936;7.184;2023-04-24T17:27:47;6.15;;;2.90;;
46607;SDS011;32330;51.936;7.184;2023-04-24T17:30:14;11.55;;;3.53;;
46607;SDS011;32330;51.936;7.184;2023-04-24T17:32:43;8.10;;;2.85;;
46607;SDS011;32330;51.936;7.184;2023-04-24T17:35:11;13.18;;;2.72;;
46607;SDS011;32330;51.936;7.184;2023-04-24T17:37:39;14.20;;;3.88;;
46607;SDS011;32330;51.936;7.184;2023-04-24T17:40:06;10.20;;;3.28;;
46607;SDS011;32330;51.936;7.184;2023-04-24T17:42:36;10.75;;;3.28;;
46607;SDS011;32330;51.936;7.184;2023-04-24T17:45:08;9.57;;;3.38;;
46607;SDS011;32330;51.936;7.184;2023-04-24T17:47:36;10.52;;;4.40;;
46607;SDS011;32330;51.936;7.184;2023-04-24T17:50:05;8.32;;;3.70;;
46607;SDS011;32330;51.936;7.184;2023-04-24T17:52:33;8.77;;;3.85;;
46607;SDS011;32330;51.936;7.184;2023-04-24T17:55:01;8.00;;;3.65;;
46607;SDS011;32330;51.936;7.184;2023-04-24T17:57:28;8.75;;;3.53;;
46607;SDS011;32330;51.936;7.184;2023-04-24T17:59:55;9.43;;;3.15;;
46607;SDS011;32330;51.936;7.184;2023-04-24T18:02:22;6.95;;;2.40;;
46607;SDS011;32330;51.936;7.184;2023-04-24T18:04:51;11.68;;;2.92;;
46607;SDS011;32330;51.936;7.184;2023-04-24T18:07:20;9.15;;;3.00;;
46607;SDS011;32330;51.936;7.184;2023-04-24T18:09:48;8.13;;;2.83;;
46607;SDS011;32330;51.936;7.184;2023-04-24T18:12:15;6.10;;;2.80;;
46607;SDS011;32330;51.936;7.184;2023-04-24T18:14:42;9.05;;;3.20;;
46607;SDS011;32330;51.936;7.184;2023-04-24T18:17:09;8.45;;;3.05;;
46607;SDS011;32330;51.936;7.184;2023-04-24T18:19:36;8.88;;;3.05;;
46607;SDS011;32330;51.936;7.184;2023-04-24T18:22:03;7.03;;;2.80;;
46607;SDS011;32330;51.936;7.184;2023-04-24T18:24:34;7.68;;;2.90;;
46607;SDS011;32330;51.936;7.184;2023-04-24T18:27:01;8.70;;;3.47;;
46607;SDS011;32330;51.936;7.184;2023-04-24T18:29:29;9.60;;;5.65;;
46607;SDS011;32330;51.936;7.184;2023-04-24T18:31:56;11.50;;;4.88;;
46607;SDS011;32330;51.936;7.184;2023-04-24T18:34:23;10.00;;;3.83;;
46607;SDS011;32330;51.936;7.184;2023-04-24T18:36:52;9.23;;;3.70;;
46607;SDS011;32330;51.936;7.184;2023-04-24T18:39:19;6.38;;;2.97;;
46607;SDS011;32330;51.936;7.184;2023-04-24T18:41:48;6.78;;;2.78;;
46607;SDS011;32330;51.936;7.184;2023-04-24T18:44:17;6.07;;;2.67;;
46607;SDS011;32330;51.936;7.184;2023-04-24T18:46:45;10.15;;;4.07;;
46607;SDS011;32330;51.936;7.184;2023-04-24T18:49:12;9.75;;;3.17;;
46607;SDS011;32330;51.936;7.184;2023-04-24T18:51:40;8.38;;;3.40;;
46607;SDS011;32330;51.936;7.184;2023-04-24T18:54:07;12.02;;;3.63;;
46607;SDS011;32330;51.936;7.184;2023-04-24T19:02:49;9.60;;;3.45;;
46607;SDS011;32330;51.936;7.184;2023-04-24T19:05:17;10.20;;;3.25;;
46607;SDS011;32330;51.936;7.184;2023-04-24T19:07:45;9.88;;;3.47;;
46607;SDS011;32330;51.936;7.184;2023-04-24T19:10:12;9.88;;;2.92;;
46607;SDS011;32330;51.936;7.184;2023-04-24T19:12:40;11.80;;;3.90;;
46607;SDS011;32330;51.936;7.184;2023-04-24T19:15:08;9.13;;;3.55;;
46607;SDS011;32330;51.936;7.184;2023-04-24T19:20:40;10.18;;;3.22;;
46607;SDS011;32330;51.936;7.184;2023-04-24T19:23:14;8.85;;;3.65;;
46607;SDS011;32330;51.936;7.184;2023-04-24T19:25:46;8.57;;;4.55;;
46607;SDS011;32330;51.936;7.184;2023-04-24T19:28:19;8.35;;;3.72;;